Map

Track Data

SID SEASON NUMBER BASIN SUBBASIN NAME ISO_TIME NATURE LAT LON WMO_WIND WMO_PRES WMO_AGENCY TRACK_TYPE DIST2LAND LANDFALL IFLAG USA_AGENCY USA_ATCF_ID USA_LAT USA_LON USA_RECORD USA_STATUS USA_WIND USA_PRES USA_SSHS USA_R34_NE USA_R34_SE USA_R34_SW USA_R34_NW USA_R50_NE USA_R50_SE USA_R50_SW USA_R50_NW USA_R64_NE USA_R64_SE USA_R64_SW USA_R64_NW USA_POCI USA_ROCI USA_RMW USA_EYE TOKYO_LAT TOKYO_LON TOKYO_GRADE TOKYO_WIND TOKYO_PRES TOKYO_R50_DIR TOKYO_R50_LONG TOKYO_R50_SHORT TOKYO_R30_DIR TOKYO_R30_LONG TOKYO_R30_SHORT TOKYO_LAND CMA_LAT CMA_LON CMA_CAT CMA_WIND CMA_PRES HKO_LAT HKO_LON HKO_CAT HKO_WIND HKO_PRES NEWDELHI_LAT NEWDELHI_LON NEWDELHI_GRADE NEWDELHI_WIND NEWDELHI_PRES NEWDELHI_CI NEWDELHI_DP NEWDELHI_POCI REUNION_LAT REUNION_LON REUNION_TYPE REUNION_WIND REUNION_PRES REUNION_TNUM REUNION_CI REUNION_RMW REUNION_R34_NE REUNION_R34_SE REUNION_R34_SW REUNION_R34_NW REUNION_R50_NE REUNION_R50_SE REUNION_R50_SW REUNION_R50_NW REUNION_R64_NE REUNION_R64_SE REUNION_R64_SW REUNION_R64_NW BOM_LAT BOM_LON BOM_TYPE BOM_WIND BOM_PRES BOM_TNUM BOM_CI BOM_RMW BOM_R34_NE BOM_R34_SE BOM_R34_SW BOM_R34_NW BOM_R50_NE BOM_R50_SE BOM_R50_SW BOM_R50_NW BOM_R64_NE BOM_R64_SE BOM_R64_SW BOM_R64_NW BOM_ROCI BOM_POCI BOM_EYE BOM_POS_METHOD BOM_PRES_METHOD NADI_LAT NADI_LON NADI_CAT NADI_WIND NADI_PRES WELLINGTON_LAT WELLINGTON_LON WELLINGTON_WIND WELLINGTON_PRES DS824_LAT DS824_LON DS824_STAGE DS824_WIND DS824_PRES TD9636_LAT TD9636_LON TD9636_STAGE TD9636_WIND TD9636_PRES TD9635_LAT TD9635_LON TD9635_WIND TD9635_PRES TD9635_ROCI NEUMANN_LAT NEUMANN_LON NEUMANN_CLASS NEUMANN_WIND NEUMANN_PRES MLC_LAT MLC_LON MLC_CLASS MLC_WIND MLC_PRES USA_GUST BOM_GUST BOM_GUST_PER REUNION_GUST REUNION_GUST_PER USA_SEAHGT USA_SEARAD_NE USA_SEARAD_SE USA_SEARAD_SW USA_SEARAD_NW STORM_SPEED STORM_DIR
1906238N14339 1906 26 NA NA NOT_NAMED 1906-08-25 12:00:00 TS 14.0000 -21.0000 35 hurdat_atl main 385 385 O_____________ hurdat_atl AL041906 14.0000 -21.0000 TS 35 0 15 270
1906238N14339 1906 26 NA NA NOT_NAMED 1906-08-25 15:00:00 TS 14.0005 -21.7500 main 470 470 P_____________ AL041906 14.0005 -21.7500 TS 35 0 15 270
1906238N14339 1906 26 NA NA NOT_NAMED 1906-08-25 18:00:00 TS 14.0000 -22.5000 35 hurdat_atl main 544 544 O_____________ hurdat_atl AL041906 14.0000 -22.5000 TS 35 0 15 270
1906238N14339 1906 26 NA NA NOT_NAMED 1906-08-25 21:00:00 TS 13.9998 -23.2500 main 619 629 P_____________ AL041906 13.9998 -23.2500 TS 37 0 15 270
1906238N14339 1906 26 NA NA NOT_NAMED 1906-08-26 00:00:00 TS 14.0000 -24.0000 40 hurdat_atl main 704 704 O_____________ hurdat_atl AL041906 14.0000 -24.0000 TS 40 0 15 270
1906238N14339 1906 26 NA NA NOT_NAMED 1906-08-26 03:00:00 TS 13.9998 -24.7500 main 779 779 P_____________ AL041906 13.9998 -24.7500 TS 40 0 15 270
1906238N14339 1906 26 NA NA NOT_NAMED 1906-08-26 06:00:00 TS 14.0000 -25.5000 40 hurdat_atl main 865 865 O_____________ hurdat_atl AL041906 14.0000 -25.5000 TS 40 0 15 270
1906238N14339 1906 26 NA NA NOT_NAMED 1906-08-26 09:00:00 TS 13.9998 -26.2500 main 940 951 P_____________ AL041906 13.9998 -26.2500 TS 42 0 15 270
1906238N14339 1906 26 NA NA NOT_NAMED 1906-08-26 12:00:00 TS 14.0000 -27.0000 45 hurdat_atl main 1026 1026 O_____________ hurdat_atl AL041906 14.0000 -27.0000 TS 45 0 15 270
1906238N14339 1906 26 NA NA NOT_NAMED 1906-08-26 15:00:00 TS 13.9998 -27.7500 main 1102 1102 P_____________ AL041906 13.9998 -27.7500 TS 45 0 15 270
1906238N14339 1906 26 NA NA NOT_NAMED 1906-08-26 18:00:00 TS 14.0000 -28.5000 45 hurdat_atl main 1188 1188 O_____________ hurdat_atl AL041906 14.0000 -28.5000 TS 45 0 15 270
1906238N14339 1906 26 NA NA NOT_NAMED 1906-08-26 21:00:00 TS 13.9998 -29.2500 main 1263 1263 P_____________ AL041906 13.9998 -29.2500 TS 47 0 15 270
1906238N14339 1906 26 NA NA NOT_NAMED 1906-08-27 00:00:00 TS 14.0000 -30.0000 50 hurdat_atl main 1349 1349 O_____________ hurdat_atl AL041906 14.0000 -30.0000 TS 50 0 15 270
1906238N14339 1906 26 NA NA NOT_NAMED 1906-08-27 03:00:00 TS 13.9998 -30.7500 main 1424 1424 P_____________ AL041906 13.9998 -30.7500 TS 50 0 15 270
1906238N14339 1906 26 NA NA NOT_NAMED 1906-08-27 06:00:00 TS 14.0000 -31.5000 50 hurdat_atl main 1510 1510 O_____________ hurdat_atl AL041906 14.0000 -31.5000 TS 50 0 14 270
1906238N14339 1906 26 NA NA NOT_NAMED 1906-08-27 09:00:00 TS 13.9997 -32.2425 main 1586 1586 P_____________ AL041906 13.9997 -32.2425 TS 52 0 15 270
1906238N14339 1906 26 NA NA NOT_NAMED 1906-08-27 12:00:00 TS 14.0000 -33.0000 55 hurdat_atl main 1672 1672 O_____________ hurdat_atl AL041906 14.0000 -33.0000 TS 55 0 15 270
1906238N14339 1906 26 NA NA NOT_NAMED 1906-08-27 15:00:00 TS 14.0073 -33.7924 main 1758 1758 P_____________ AL041906 14.0073 -33.7924 TS 55 0 16 270
1906238N14339 1906 26 NA NA NOT_NAMED 1906-08-27 18:00:00 TS 14.0000 -34.6000 55 hurdat_atl main 1844 1844 O_____________ hurdat_atl AL041906 14.0000 -34.6000 TS 55 0 16 268
1906238N14339 1906 26 NA NA NOT_NAMED 1906-08-27 21:00:00 TS 13.9497 -35.4001 main 1931 1923 P_____________ AL041906 13.9497 -35.4001 TS 57 0 16 266
1906238N14339 1906 26 NA NA NOT_NAMED 1906-08-28 00:00:00 TS 13.9000 -36.2000 60 hurdat_atl main 1923 1909 O_____________ hurdat_atl AL041906 13.9000 -36.2000 TS 60 0 15 268
1906238N14339 1906 26 NA NA NOT_NAMED 1906-08-28 03:00:00 TS 13.8997 -36.9924 main 1902 1830 P_____________ AL041906 13.8997 -36.9924 TS 60 0 16 270
1906238N14339 1906 26 NA NA NOT_NAMED 1906-08-28 06:00:00 TS 13.9000 -37.8000 60 hurdat_atl main 1830 1760 O_____________ hurdat_atl AL041906 13.9000 -37.8000 TS 60 0 16 268
1906238N14339 1906 26 NA NA NOT_NAMED 1906-08-28 09:00:00 TS 13.8498 -38.6426 main 1753 1676 P_____________ AL041906 13.8498 -38.6426 TS 62 0 17 267
1906238N14339 1906 26 NA NA NOT_NAMED 1906-08-28 12:00:00 TS 13.8000 -39.5000 65 hurdat_atl main 1676 1609 O_____________ hurdat_atl AL041906 13.8000 -39.5000 HU 65 1 17 268
1906238N14339 1906 26 NA NA NOT_NAMED 1906-08-28 15:00:00 TS 13.7998 -40.3573 main 1601 1536 P_____________ AL041906 13.7998 -40.3573 HU 65 1 17 270
1906238N14339 1906 26 NA NA NOT_NAMED 1906-08-28 18:00:00 TS 13.8000 -41.2000 65 hurdat_atl main 1536 1474 O_____________ hurdat_atl AL041906 13.8000 -41.2000 HU 65 1 16 268
1906238N14339 1906 26 NA NA NOT_NAMED 1906-08-28 21:00:00 TS 13.7497 -42.0076 main 1466 1406 P_____________ AL041906 13.7497 -42.0076 HU 67 1 16 266
1906238N14339 1906 26 NA NA NOT_NAMED 1906-08-29 00:00:00 TS 13.7000 -42.8000 70 hurdat_atl main 1406 1350 O_____________ hurdat_atl AL041906 13.7000 -42.8000 HU 70 1 15 268
1906238N14339 1906 26 NA NA NOT_NAMED 1906-08-29 03:00:00 TS 13.6997 -43.5998 main 1350 1297 P_____________ AL041906 13.6997 -43.5998 HU 70 1 16 270
1906238N14339 1906 26 NA NA NOT_NAMED 1906-08-29 06:00:00 TS 13.7000 -44.4000 70 hurdat_atl main 1297 1253 O_____________ hurdat_atl AL041906 13.7000 -44.4000 HU 70 1 16 268
1906238N14339 1906 26 NA NA NOT_NAMED 1906-08-29 09:00:00 TS 13.6497 -45.1926 main 1238 1187 P_____________ AL041906 13.6497 -45.1926 HU 70 1 16 266
1906238N14339 1906 26 NA NA NOT_NAMED 1906-08-29 12:00:00 TS 13.6000 -46.0000 70 hurdat_atl main 1187 1135 O_____________ hurdat_atl AL041906 13.6000 -46.0000 HU 70 1 16 268
1906238N14339 1906 26 NA NA NOT_NAMED 1906-08-29 15:00:00 TS 13.5924 -46.8499 main 1135 1083 P_____________ AL041906 13.5924 -46.8499 HU 70 1 17 270
1906238N14339 1906 26 NA NA NOT_NAMED 1906-08-29 18:00:00 TS 13.6000 -47.7000 70 hurdat_atl main 1083 1042 O_____________ hurdat_atl AL041906 13.6000 -47.7000 HU 70 1 16 271
1906238N14339 1906 26 NA NA NOT_NAMED 1906-08-29 21:00:00 TS 13.6072 -48.5074 main 1042 1005 P_____________ AL041906 13.6072 -48.5074 HU 72 1 16 270
1906238N14339 1906 26 NA NA NOT_NAMED 1906-08-30 00:00:00 TS 13.6000 -49.3000 75 hurdat_atl main 1005 972 O_____________ hurdat_atl AL041906 13.6000 -49.3000 HU 75 1 16 268
1906238N14339 1906 26 NA NA NOT_NAMED 1906-08-30 03:00:00 TS 13.5497 -50.1001 main 962 924 P_____________ AL041906 13.5497 -50.1001 HU 75 1 16 266
1906238N14339 1906 26 NA NA NOT_NAMED 1906-08-30 06:00:00 TS 13.5000 -50.9000 75 hurdat_atl main 924 894 O_____________ hurdat_atl AL041906 13.5000 -50.9000 HU 75 1 16 267
1906238N14339 1906 26 NA NA NOT_NAMED 1906-08-30 09:00:00 TS 13.4773 -51.7076 main 894 871 P_____________ AL041906 13.4773 -51.7076 HU 75 1 16 270
1906238N14339 1906 26 NA NA NOT_NAMED 1906-08-30 12:00:00 TS 13.5000 -52.5000 75 hurdat_atl main 871 859 O_____________ hurdat_atl AL041906 13.5000 -52.5000 HU 75 1 15 273
1906238N14339 1906 26 NA NA NOT_NAMED 1906-08-30 15:00:00 TS 13.5698 -53.2725 main 868 832 P_____________ AL041906 13.5698 -53.2725 HU 77 1 15 278
1906238N14339 1906 26 NA NA NOT_NAMED 1906-08-30 18:00:00 TS 13.7000 -54.0000 80 hurdat_atl main 832 782 O_____________ hurdat_atl AL041906 13.7000 -54.0000 HU 80 1 14 283
1906238N14339 1906 26 NA NA NOT_NAMED 1906-08-30 21:00:00 TS 13.8848 -54.6725 main 772 726 P_____________ AL041906 13.8848 -54.6725 HU 80 1 13 288
1906238N14339 1906 26 NA NA NOT_NAMED 1906-08-31 00:00:00 TS 14.1000 -55.3000 80 hurdat_atl main 726 685 O_____________ hurdat_atl AL041906 14.1000 -55.3000 HU 80 1 13 289
1906238N14339 1906 26 NA NA NOT_NAMED 1906-08-31 03:00:00 TS 14.2924 -55.9226 main 685 647 P_____________ AL041906 14.2924 -55.9226 HU 80 1 12 289
1906238N14339 1906 26 NA NA NOT_NAMED 1906-08-31 06:00:00 TS 14.5000 -56.5000 80 hurdat_atl main 647 623 O_____________ hurdat_atl AL041906 14.5000 -56.5000 HU 80 1 12 293
1906238N14339 1906 26 NA NA NOT_NAMED 1906-08-31 09:00:00 TS 14.7424 -57.0300 main 623 611 P_____________ AL041906 14.7424 -57.0300 HU 82 1 11 297
1906238N14339 1906 26 NA NA NOT_NAMED 1906-08-31 12:00:00 TS 15.0000 -57.5000 85 hurdat_atl main 613 605 O_____________ hurdat_atl AL041906 15.0000 -57.5000 HU 85 2 10 300
1906238N14339 1906 26 NA NA NOT_NAMED 1906-08-31 15:00:00 TS 15.2499 -57.9226 main 605 603 P_____________ AL041906 15.2499 -57.9226 HU 85 2 9 303
1906238N14339 1906 26 NA NA NOT_NAMED 1906-08-31 18:00:00 TS 15.5000 -58.3000 85 hurdat_atl main 611 606 O_____________ hurdat_atl AL041906 15.5000 -58.3000 HU 85 2 9 306
1906238N14339 1906 26 NA NA NOT_NAMED 1906-08-31 21:00:00 TS 15.7498 -58.6352 main 617 617 P_____________ AL041906 15.7498 -58.6352 HU 85 2 8 307
1906238N14339 1906 26 NA NA NOT_NAMED 1906-09-01 00:00:00 TS 16.0000 -59.0000 85 hurdat_atl main 631 628 O_____________ hurdat_atl AL041906 16.0000 -59.0000 HU 85 2 10 301
1906238N14339 1906 26 NA NA NOT_NAMED 1906-09-01 03:00:00 TS 16.2502 -59.5000 main 647 624 P_____________ AL041906 16.2502 -59.5000 HU 85 2 11 298
1906238N14339 1906 26 NA NA NOT_NAMED 1906-09-01 06:00:00 TS 16.5000 -60.0000 85 hurdat_atl main 624 576 O_____________ hurdat_atl AL041906 16.5000 -60.0000 HU 85 2 10 301
1906238N14339 1906 26 NA NA NOT_NAMED 1906-09-01 09:00:00 TS 16.7498 -60.3727 main 576 536 P_____________ AL041906 16.7498 -60.3727 HU 87 2 8 307
1906238N14339 1906 26 NA CS NOT_NAMED 1906-09-01 12:00:00 TS 17.0000 -60.7000 90 hurdat_atl main 536 500 O_____________ hurdat_atl AL041906 17.0000 -60.7000 HU 90 2 8 308
1906238N14339 1906 26 NA CS NOT_NAMED 1906-09-01 15:00:00 TS 17.2499 -61.0426 main 500 451 P_____________ AL041906 17.2499 -61.0426 HU 90 2 8 307
1906238N14339 1906 26 NA CS NOT_NAMED 1906-09-01 18:00:00 TS 17.5000 -61.4000 90 hurdat_atl main 451 405 O_____________ hurdat_atl AL041906 17.5000 -61.4000 HU 90 2 9 305
1906238N14339 1906 26 NA CS NOT_NAMED 1906-09-01 21:00:00 TS 17.7499 -61.7851 main 405 360 P_____________ AL041906 17.7499 -61.7851 HU 90 2 9 303
1906238N14339 1906 26 NA CS NOT_NAMED 1906-09-02 00:00:00 TS 18.0000 -62.2000 90 hurdat_atl main 360 316 O_____________ hurdat_atl AL041906 18.0000 -62.2000 HU 90 2 10 302
1906238N14339 1906 26 NA CS NOT_NAMED 1906-09-02 03:00:00 TS 18.2499 -62.6426 main 316 263 P_____________ AL041906 18.2499 -62.6426 HU 90 2 10 300
1906238N14339 1906 26 NA CS NOT_NAMED 1906-09-02 06:00:00 TS 18.5000 -63.1000 90 hurdat_atl main 263 223 O_____________ hurdat_atl AL041906 18.5000 -63.1000 HU 90 2 10 300
1906238N14339 1906 26 NA CS NOT_NAMED 1906-09-02 09:00:00 TS 18.7650 -63.5650 main 215 181 P_____________ AL041906 18.7650 -63.5650 HU 90 2 10 300
1906238N14339 1906 26 NA NA NOT_NAMED 1906-09-02 12:00:00 TS 19.0000 -64.0000 90 hurdat_atl main 181 157 O_____________ hurdat_atl AL041906 19.0000 -64.0000 HU 90 2 9 298
1906238N14339 1906 26 NA NA NOT_NAMED 1906-09-02 15:00:00 TS 19.1648 -64.3652 main 154 138 P_____________ AL041906 19.1648 -64.3652 HU 92 2 7 294
1906238N14339 1906 26 NA NA NOT_NAMED 1906-09-02 18:00:00 TS 19.3000 -64.7000 95 hurdat_atl main 138 128 O_____________ hurdat_atl AL041906 19.3000 -64.7000 HU 95 2 7 294
1906238N14339 1906 26 NA NA NOT_NAMED 1906-09-02 21:00:00 TS 19.4575 -65.0575 main 133 127 P_____________ AL041906 19.4575 -65.0575 HU 95 2 7 294
1906238N14339 1906 26 NA NA NOT_NAMED 1906-09-03 00:00:00 TS 19.6000 -65.4000 95 hurdat_atl main 135 134 O_____________ hurdat_atl AL041906 19.6000 -65.4000 HU 95 2 7 292
1906238N14339 1906 26 NA NA NOT_NAMED 1906-09-03 03:00:00 TS 19.7074 -65.7001 main 145 145 P_____________ AL041906 19.7074 -65.7001 HU 97 3 6 289
1906238N14339 1906 26 NA NA NOT_NAMED 1906-09-03 06:00:00 TS 19.8000 -66.0000 100 hurdat_atl main 156 156 O_____________ hurdat_atl AL041906 19.8000 -66.0000 HU 100 3 6 287
1906238N14339 1906 26 NA NA NOT_NAMED 1906-09-03 09:00:00 TS 19.8924 -66.3276 main 167 167 P_____________ AL041906 19.8924 -66.3276 HU 100 3 7 287
1906238N14339 1906 26 NA NA NOT_NAMED 1906-09-03 12:00:00 TS 20.0000 -66.7000 100 hurdat_atl main 178 178 O_____________ hurdat_atl AL041906 20.0000 -66.7000 HU 100 3 8 288
1906238N14339 1906 26 NA NA NOT_NAMED 1906-09-03 15:00:00 TS 20.1426 -67.1499 main 190 190 P_____________ AL041906 20.1426 -67.1499 HU 102 3 9 290
1906238N14339 1906 26 NA NA NOT_NAMED 1906-09-03 18:00:00 TS 20.3000 -67.6000 105 hurdat_atl main 197 191 O_____________ hurdat_atl AL041906 20.3000 -67.6000 HU 105 3 8 292
1906238N14339 1906 26 NA NA NOT_NAMED 1906-09-03 21:00:00 TS 20.4498 -67.9651 main 183 176 P_____________ AL041906 20.4498 -67.9651 HU 105 3 7 295
1906238N14339 1906 26 NA NA NOT_NAMED 1906-09-04 00:00:00 TS 20.6000 -68.3000 105 hurdat_atl main 179 172 O_____________ hurdat_atl AL041906 20.6000 -68.3000 HU 105 3 7 294
1906238N14339 1906 26 NA NA NOT_NAMED 1906-09-04 03:00:00 TS 20.7425 -68.6576 main 168 168 P_____________ AL041906 20.7425 -68.6576 HU 107 3 7 295
1906238N14339 1906 26 NA NA NOT_NAMED 1906-09-04 06:00:00 TS 20.9000 -69.0000 110 hurdat_atl main 178 173 O_____________ hurdat_atl AL041906 20.9000 -69.0000 HU 110 3 7 300
1906238N14339 1906 26 NA NA NOT_NAMED 1906-09-04 09:00:00 TS 21.0999 -69.3075 main 182 179 P_____________ AL041906 21.0999 -69.3075 HU 110 3 7 306
1906238N14339 1906 26 NA NA NOT_NAMED 1906-09-04 12:00:00 TS 21.3000 -69.6000 110 hurdat_atl main 194 192 O_____________ hurdat_atl AL041906 21.3000 -69.6000 HU 110 3 7 302
1906238N14339 1906 26 NA NA NOT_NAMED 1906-09-04 15:00:00 TS 21.4424 -69.9002 main 193 193 P_____________ AL041906 21.4424 -69.9002 HU 110 3 6 298
1906238N14339 1906 26 NA NA NOT_NAMED 1906-09-04 18:00:00 TS 21.6000 -70.2000 110 hurdat_atl main 205 203 O_____________ hurdat_atl AL041906 21.6000 -70.2000 HU 110 3 7 306
1906238N14339 1906 26 NA NA NOT_NAMED 1906-09-04 21:00:00 TS 21.8424 -70.5000 main 223 223 P_____________ AL041906 21.8424 -70.5000 HU 112 3 8 312
1906238N14339 1906 26 NA NA NOT_NAMED 1906-09-05 00:00:00 TS 22.1000 -70.8000 115 hurdat_atl main 248 231 O_____________ hurdat_atl AL041906 22.1000 -70.8000 HU 115 4 7 309
1906238N14339 1906 26 NA NA NOT_NAMED 1906-09-05 03:00:00 TS 22.2924 -71.1002 main 231 219 P_____________ AL041906 22.2924 -71.1002 HU 115 4 7 306
1906238N14339 1906 26 NA NA NOT_NAMED 1906-09-05 06:00:00 TS 22.5000 -71.4000 115 hurdat_atl main 219 219 O_____________ hurdat_atl AL041906 22.5000 -71.4000 HU 115 4 7 313
1906238N14339 1906 26 NA NA NOT_NAMED 1906-09-05 09:00:00 TS 22.7999 -71.6925 main 223 223 P_____________ AL041906 22.7999 -71.6925 HU 115 4 8 317
1906238N14339 1906 26 NA NA NOT_NAMED 1906-09-05 12:00:00 TS 23.1000 -72.0000 115 hurdat_atl main 236 231 O_____________ hurdat_atl AL041906 23.1000 -72.0000 HU 115 4 8 311
1906238N14339 1906 26 NA NA NOT_NAMED 1906-09-05 15:00:00 TS 23.3150 -72.3427 main 245 242 P_____________ AL041906 23.3150 -72.3427 HU 115 4 8 302
1906238N14339 1906 26 NA NA NOT_NAMED 1906-09-05 18:00:00 TS 23.5000 -72.7000 115 hurdat_atl main 258 257 O_____________ hurdat_atl AL041906 23.5000 -72.7000 HU 115 4 8 300
1906238N14339 1906 26 NA NA NOT_NAMED 1906-09-05 21:00:00 TS 23.6925 -73.0576 main 279 279 P_____________ AL041906 23.6925 -73.0576 HU 115 4 8 302
1906238N14339 1906 26 NA NA NOT_NAMED 1906-09-06 00:00:00 TS 23.9000 -73.4000 115 hurdat_atl main 302 302 O_____________ hurdat_atl AL041906 23.9000 -73.4000 HU 115 4 7 307
1906238N14339 1906 26 NA NA NOT_NAMED 1906-09-06 03:00:00 TS 24.1348 -73.7002 main 328 328 P_____________ AL041906 24.1348 -73.7002 HU 115 4 7 312
1906238N14339 1906 26 NA NA NOT_NAMED 1906-09-06 06:00:00 TS 24.4000 -74.0000 115 hurdat_atl main 366 343 O_____________ hurdat_atl AL041906 24.4000 -74.0000 HU 115 4 8 313
1906238N14339 1906 26 NA NA NOT_NAMED 1906-09-06 09:00:00 TS 24.6774 -74.3278 main 344 307 P_____________ AL041906 24.6774 -74.3278 HU 115 4 9 313
1906238N14339 1906 26 NA NA NOT_NAMED 1906-09-06 12:00:00 TS 25.0000 -74.7000 115 hurdat_atl main 307 276 O_____________ hurdat_atl AL041906 25.0000 -74.7000 HU 115 4 10 313
1906238N14339 1906 26 NA NA NOT_NAMED 1906-09-06 15:00:00 TS 25.3701 -75.1426 main 280 251 P_____________ AL041906 25.3701 -75.1426 HU 112 3 11 315
1906238N14339 1906 26 NA NA NOT_NAMED 1906-09-06 18:00:00 TS 25.8000 -75.6000 110 hurdat_atl main 251 235 O_____________ hurdat_atl AL041906 25.8000 -75.6000 HU 110 3 12 318
1906238N14339 1906 26 NA NA NOT_NAMED 1906-09-06 21:00:00 TS 26.2776 -76.0522 main 232 231 P_____________ AL041906 26.2776 -76.0522 HU 110 3 12 324
1906238N14339 1906 26 NA NA NOT_NAMED 1906-09-07 00:00:00 TS 26.8000 -76.4000 110 hurdat_atl main 248 248 O_____________ hurdat_atl AL041906 26.8000 -76.4000 HU 110 3 12 335
1906238N14339 1906 26 NA NA NOT_NAMED 1906-09-07 03:00:00 TS 27.3422 -76.6048 main 282 282 P_____________ AL041906 27.3422 -76.6048 HU 110 3 11 351
1906238N14339 1906 26 NA NA NOT_NAMED 1906-09-07 06:00:00 TS 27.9000 -76.6000 110 hurdat_atl main 342 342 O_____________ hurdat_atl AL041906 27.9000 -76.6000 HU 110 3 12 9
1906238N14339 1906 26 NA NA NOT_NAMED 1906-09-07 09:00:00 TS 28.4947 -76.4056 main 400 400 P_____________ AL041906 28.4947 -76.4056 HU 110 3 12 26
1906238N14339 1906 26 NA NA NOT_NAMED 1906-09-07 12:00:00 TS 29.0000 -76.0000 110 hurdat_atl main 441 441 O_____________ hurdat_atl AL041906 29.0000 -76.0000 HU 110 3 12 46
1906238N14339 1906 26 NA NA NOT_NAMED 1906-09-07 15:00:00 TS 29.3101 -75.4523 main 494 494 P_____________ AL041906 29.3101 -75.4523 HU 110 3 12 64
1906238N14339 1906 26 NA NA NOT_NAMED 1906-09-07 18:00:00 TS 29.5000 -74.8000 110 hurdat_atl main 564 564 O_____________ hurdat_atl AL041906 29.5000 -74.8000 HU 110 3 12 72
1906238N14339 1906 26 NA NA NOT_NAMED 1906-09-07 21:00:00 TS 29.6722 -74.1647 main 589 589 P_____________ AL041906 29.6722 -74.1647 HU 110 3 12 75
1906238N14339 1906 26 NA NA NOT_NAMED 1906-09-08 00:00:00 TS 29.8000 -73.5000 110 hurdat_atl main 614 614 O_____________ hurdat_atl AL041906 29.8000 -73.5000 HU 110 3 12 79
1906238N14339 1906 26 NA NA NOT_NAMED 1906-09-08 03:00:00 TS 29.8995 -72.8220 main 637 637 P_____________ AL041906 29.8995 -72.8220 HU 110 3 12 81
1906238N14339 1906 26 NA NA NOT_NAMED 1906-09-08 06:00:00 TS 30.0000 -72.1000 110 hurdat_atl main 666 666 O_____________ hurdat_atl AL041906 30.0000 -72.1000 HU 110 3 14 80
1906238N14339 1906 26 NA NA NOT_NAMED 1906-09-08 09:00:00 TS 30.1353 -71.2850 main 707 705 P_____________ AL041906 30.1353 -71.2850 HU 110 3 14 78
1906238N14339 1906 26 NA NA NOT_NAMED 1906-09-08 12:00:00 TS 30.3000 -70.5000 110 hurdat_atl main 745 745 O_____________ hurdat_atl AL041906 30.3000 -70.5000 HU 110 3 13 74
1906238N14339 1906 26 NA NA NOT_NAMED 1906-09-08 15:00:00 TS 30.4768 -69.8695 main 773 773 P_____________ AL041906 30.4768 -69.8695 HU 110 3 11 69
1906238N14339 1906 26 NA NA NOT_NAMED 1906-09-08 18:00:00 TS 30.7000 -69.3000 110 hurdat_atl main 803 803 O_____________ hurdat_atl AL041906 30.7000 -69.3000 HU 110 3 11 63
1906238N14339 1906 26 NA NA NOT_NAMED 1906-09-08 21:00:00 TS 30.9847 -68.6999 main 826 825 P_____________ AL041906 30.9847 -68.6999 HU 107 3 12 60
1906238N14339 1906 26 NA NA NOT_NAMED 1906-09-09 00:00:00 TS 31.3000 -68.1000 105 hurdat_atl main 848 848 O_____________ hurdat_atl AL041906 31.3000 -68.1000 HU 105 3 12 59
1906238N14339 1906 26 NA NA NOT_NAMED 1906-09-09 03:00:00 TS 31.5997 -67.4996 main 874 874 P_____________ AL041906 31.5997 -67.4996 HU 105 3 12 60
1906238N14339 1906 26 NA NA NOT_NAMED 1906-09-09 06:00:00 TS 31.9000 -66.9000 105 hurdat_atl main 903 903 O_____________ hurdat_atl AL041906 31.9000 -66.9000 HU 105 3 12 61
1906238N14339 1906 26 NA NA NOT_NAMED 1906-09-09 09:00:00 TS 32.1620 -66.3136 main 936 936 P_____________ AL041906 32.1620 -66.3136 HU 105 3 12 59
1906238N14339 1906 26 NA NA NOT_NAMED 1906-09-09 12:00:00 TS 32.5000 -65.7000 105 hurdat_atl main 971 971 O_____________ hurdat_atl AL041906 32.5000 -65.7000 HU 105 3 14 52
1906238N14339 1906 26 NA NA NOT_NAMED 1906-09-09 15:00:00 TS 33.0124 -65.0152 main 1010 1010 P_____________ AL041906 33.0124 -65.0152 HU 105 3 16 47
1906238N14339 1906 26 NA NA NOT_NAMED 1906-09-09 18:00:00 TS 33.6000 -64.3000 105 hurdat_atl main 1031 1009 O_____________ hurdat_atl AL041906 33.6000 -64.3000 HU 105 3 16 46
1906238N14339 1906 26 NA NA NOT_NAMED 1906-09-09 21:00:00 TS 34.1495 -63.6064 main 1014 992 P_____________ AL041906 34.1495 -63.6064 HU 102 3 16 46
1906238N14339 1906 26 NA NA NOT_NAMED 1906-09-10 00:00:00 TS 34.7000 -62.9000 100 hurdat_atl main 994 958 O_____________ hurdat_atl AL041906 34.7000 -62.9000 HU 100 3 16 48
1906238N14339 1906 26 NA NA NOT_NAMED 1906-09-10 03:00:00 TS 35.2423 -62.1491 main 963 919 P_____________ AL041906 35.2423 -62.1491 HU 100 3 16 48
1906238N14339 1906 26 NA NA NOT_NAMED 1906-09-10 06:00:00 TS 35.8000 -61.4000 100 hurdat_atl main 919 884 O_____________ hurdat_atl AL041906 35.8000 -61.4000 HU 100 3 16 44
1906238N14339 1906 26 NA NA NOT_NAMED 1906-09-10 09:00:00 TS 36.3739 -60.8150 main 877 846 P_____________ AL041906 36.3739 -60.8150 HU 100 3 16 43
1906238N14339 1906 26 NA NA NOT_NAMED 1906-09-10 12:00:00 TS 37.0000 -60.0000 100 hurdat_atl main 850 845 O_____________ hurdat_atl AL041906 37.0000 -60.0000 HU 100 3 22 53
1906238N14339 1906 26 NA NA NOT_NAMED 1906-09-10 15:00:00 TS 37.6689 -58.6497 main 853 828 P_____________ AL041906 37.6689 -58.6497 HU 100 3 28 60
1906238N14339 1906 26 NA NA NOT_NAMED 1906-09-10 18:00:00 TS 38.4000 -56.9000 100 hurdat_atl main 831 826 O_____________ hurdat_atl AL041906 38.4000 -56.9000 HU 100 3 33 63
1906238N14339 1906 26 NA NA NOT_NAMED 1906-09-10 21:00:00 TS 39.1407 -54.9122 main 840 745 P_____________ AL041906 39.1407 -54.9122 HU 97 3 36 63
1906238N14339 1906 26 NA NA NOT_NAMED 1906-09-11 00:00:00 TS 40.0000 -52.8000 95 950 hurdat_atl main 734 657 O_____________ hurdat_atl AL041906 40.0000 -52.8000 HU 95 950 2 37 60
1906238N14339 1906 26 NA NA NOT_NAMED 1906-09-11 03:00:00 TS 41.0073 -50.7712 main 651 600 P_____________ AL041906 41.0073 -50.7712 HU 90 2 37 54
1906238N14339 1906 26 NA NA NOT_NAMED 1906-09-11 06:00:00 TS 42.2000 -48.8000 85 hurdat_atl main 600 583 O_____________ hurdat_atl AL041906 42.2000 -48.8000 HU 85 2 38 48
1906238N14339 1906 26 NA NA NOT_NAMED 1906-09-11 09:00:00 TS 43.5707 -46.9374 main 593 593 P_____________ AL041906 43.5707 -46.9374 HU 80 1 39 45
1906238N14339 1906 26 NA NA NOT_NAMED 1906-09-11 12:00:00 ET 45.0000 -45.0000 75 hurdat_atl main 644 644 O_____________ hurdat_atl AL041906 45.0000 -45.0000 EX 75 -4 40 47
1906238N14339 1906 26 NA NA NOT_NAMED 1906-09-11 15:00:00 ET 46.3070 -42.7840 main 752 752 P_____________ AL041906 46.3070 -42.7840 EX 70 -4 40 52
1906238N14339 1906 26 NA NA NOT_NAMED 1906-09-11 18:00:00 ET 47.5000 -40.4000 65 hurdat_atl main 911 911 O_____________ hurdat_atl AL041906 47.5000 -40.4000 EX 65 -4 40 56
1906238N14339 1906 26 NA NA NOT_NAMED 1906-09-11 21:00:00 ET 48.5484 -37.9262 main 1092 1092 P_____________ AL041906 48.5484 -37.9262 EX 62 -4 39 59
1906238N14339 1906 26 NA NA NOT_NAMED 1906-09-12 00:00:00 ET 49.5000 -35.4000 60 hurdat_atl main 1271 1246 O_____________ hurdat_atl AL041906 49.5000 -35.4000 EX 60 -4 38 60
1906238N14339 1906 26 NA NA NOT_NAMED 1906-09-12 03:00:00 ET 50.4164 -32.8614 main 1249 1242 P_____________ AL041906 50.4164 -32.8614 EX 57 -4 37 61
1906238N14339 1906 26 NA NA NOT_NAMED 1906-09-12 06:00:00 ET 51.3000 -30.3000 55 hurdat_atl main 1255 1171 O_____________ hurdat_atl AL041906 51.3000 -30.3000 EX 55 -4 37 61
1906238N14339 1906 26 NA NA NOT_NAMED 1906-09-12 09:00:00 ET 52.2076 -27.6214 main 1158 985 P_____________ AL041906 52.2076 -27.6214 EX 52 -4 37 62
1906238N14339 1906 26 NA NA NOT_NAMED 1906-09-12 12:00:00 ET 53.0000 -25.0000 50 hurdat_atl main 978 822 O_____________ hurdat_atl AL041906 53.0000 -25.0000 EX 50 -4 33 66
1906238N14339 1906 26 NA NA NOT_NAMED 1906-09-12 15:00:00 ET 53.5735 -22.5871 main 814 667 P_____________ AL041906 53.5735 -22.5871 EX 47 -4 30 70
1906238N14339 1906 26 NA NA NOT_NAMED 1906-09-12 18:00:00 ET 54.0000 -20.3000 45 hurdat_atl main 661 O_____________ hurdat_atl AL041906 54.0000 -20.3000 EX 45 -4 28 72

About IBTrACS Database

This database is a web-friendly format of International Best Track Archive for Climate Stewardship (IBTrACS), a global best track data archive curated by NOAA dating back to 1842.

Updated: 2021-11-26